Time;durP1;ratioP1;P1;durP2;ratioP2;P2;SDS_P1;SDS_P2;PMS_P1;PMS_P2;Temp;Humidity;BMP_temperature;BMP_pressure;BME280_temperature;BME280_humidity;BME280_pressure;Samples;Min_cycle;Max_cycle;Signal;HPM_P1;HPM_P2
2021/08/13 00:01:02;;;;;;;;;;;19.00;71.90;;;;;;491844;240;1255;-47
2021/08/13 00:03:03;;;;;;;;;;;18.90;71.80;;;;;;491500;240;2208;-47
2021/08/13 00:05:05;;;;;;;;;;;18.90;71.80;;;;;;491493;240;1169;-47
2021/08/13 00:07:06;;;;;;;;;;;19.00;71.90;;;;;;491451;240;1194;-47
2021/08/13 00:09:07;;;;;;;;;;;18.90;71.80;;;;;;491596;240;1094;-47
2021/08/13 00:11:09;;;;;;;;;;;18.90;71.80;;;;;;491938;240;1251;-47
2021/08/13 00:13:10;;;;;;;;;;;18.90;71.80;;;;;;491679;240;1147;-46
2021/08/13 00:15:11;;;;;;;;;;;18.90;71.80;;;;;;491538;240;1152;-47
2021/08/13 00:17:13;;;;;;;;;;;18.90;71.80;;;;;;491513;240;1259;-47
2021/08/13 00:19:14;;;;;;;;;;;18.90;71.80;;;;;;491639;240;1066;-47
2021/08/13 00:21:15;;;;;;;;;;;18.90;71.90;;;;;;491497;240;1537;-47
2021/08/13 00:23:17;;;;;;;;;;;19.00;71.90;;;;;;491578;240;2183;-46
2021/08/13 00:25:18;;;;;;;;;;;18.90;71.80;;;;;;491918;240;1073;-47
2021/08/13 00:27:19;;;;;;;;;;;18.90;71.90;;;;;;491592;240;1286;-47
2021/08/13 00:29:21;;;;;;;;;;;18.90;71.90;;;;;;491732;240;1092;-46
2021/08/13 00:31:22;;;;;;;;;;;18.90;71.80;;;;;;491811;240;1197;-46
2021/08/13 00:33:23;;;;;;;;;;;18.90;71.80;;;;;;491574;240;1092;-46
2021/08/13 00:35:25;;;;;;;;;;;19.00;71.80;;;;;;491919;240;1239;-47
2021/08/13 00:37:26;;;;;;;;;;;19.00;71.80;;;;;;491992;240;1168;-47
2021/08/13 00:39:27;;;;;;;;;;;18.90;71.80;;;;;;491611;240;1574;-47
2021/08/13 00:41:29;;;;;;;;;;;18.90;71.90;;;;;;491633;240;1107;-47
2021/08/13 00:43:30;;;;;;;;;;;18.90;71.80;;;;;;491841;240;2174;-47
2021/08/13 00:45:31;;;;;;;;;;;18.90;71.80;;;;;;491953;240;1267;-46
2021/08/13 00:47:33;;;;;;;;;;;18.90;71.80;;;;;;491577;240;1608;-46
2021/08/13 00:49:34;;;;;;;;;;;18.90;71.80;;;;;;491604;240;1078;-46
2021/08/13 00:51:35;;;;;;;;;;;18.90;71.80;;;;;;491502;240;1198;-47
2021/08/13 00:53:36;;;;;;;;;;;18.90;71.70;;;;;;491780;240;1092;-47
2021/08/13 00:55:38;;;;;;;;;;;18.90;71.80;;;;;;491706;240;1102;-47
2021/08/13 00:57:39;;;;;;;;;;;19.00;71.80;;;;;;491484;240;1331;-46
2021/08/13 00:59:41;;;;;;;;;;;19.00;71.70;;;;;;491556;240;1090;-47
2021/08/13 01:01:42;;;;;;;;;;;19.00;71.70;;;;;;491646;240;1500;-46
2021/08/13 01:03:43;;;;;;;;;;;18.90;71.70;;;;;;491755;240;2148;-47
2021/08/13 01:05:45;;;;;;;;;;;18.90;71.80;;;;;;491835;240;1208;-47
2021/08/13 01:07:46;;;;;;;;;;;18.90;71.80;;;;;;491511;240;1229;-47
2021/08/13 01:09:47;;;;;;;;;;;18.90;71.80;;;;;;492027;240;1071;-47
2021/08/13 01:11:49;;;;;;;;;;;18.90;71.80;;;;;;491588;240;1122;-46
2021/08/13 01:13:50;;;;;;;;;;;18.90;71.80;;;;;;491507;240;1053;-46
2021/08/13 01:15:51;;;;;;;;;;;18.90;71.80;;;;;;491924;240;1118;-47
2021/08/13 01:17:53;;;;;;;;;;;18.90;71.90;;;;;;491489;240;1126;-47
2021/08/13 01:19:56;;;;;;;;;;;18.90;71.80;;;;;;491524;240;1216;-47
2021/08/13 01:21:55;;;;;;;;;;;18.90;71.90;;;;;;491651;240;1314;-47
2021/08/13 01:23:57;;;;;;;;;;;18.90;71.80;;;;;;491788;240;2191;-47
2021/08/13 01:25:58;;;;;;;;;;;19.00;71.80;;;;;;491506;240;1076;-47
2021/08/13 01:27:59;;;;;;;;;;;19.00;71.80;;;;;;491628;240;1459;-47
2021/08/13 01:30:01;;;;;;;;;;;18.90;71.70;;;;;;491531;240;1080;-46
2021/08/13 01:32:02;;;;;;;;;;;18.90;71.80;;;;;;491556;240;1367;-46
2021/08/13 01:34:03;;;;;;;;;;;18.90;71.80;;;;;;491552;240;1239;-47
2021/08/13 01:36:05;;;;;;;;;;;18.90;71.80;;;;;;491960;240;1168;-47
2021/08/13 01:38:06;;;;;;;;;;;19.00;71.80;;;;;;491683;240;1235;-47
2021/08/13 01:40:07;;;;;;;;;;;19.00;71.80;;;;;;491642;240;1091;-47
2021/08/13 01:42:09;;;;;;;;;;;18.90;71.80;;;;;;491384;240;1472;-47
2021/08/13 01:44:10;;;;;;;;;;;18.90;71.90;;;;;;491406;240;2121;-46
2021/08/13 01:46:11;;;;;;;;;;;18.90;71.80;;;;;;491568;240;1063;-47
2021/08/13 01:48:12;;;;;;;;;;;18.90;71.90;;;;;;491349;240;1186;-47
2021/08/13 01:50:14;;;;;;;;;;;18.90;71.90;;;;;;491393;240;1121;-46
2021/08/13 01:52:15;;;;;;;;;;;18.90;71.80;;;;;;491359;240;1363;-47
2021/08/13 01:54:16;;;;;;;;;;;18.90;71.90;;;;;;491370;240;1167;-47
2021/08/13 01:56:18;;;;;;;;;;;18.90;71.80;;;;;;491531;240;1063;-47
2021/08/13 01:58:19;;;;;;;;;;;18.90;71.70;;;;;;491375;240;1285;-47
2021/08/13 02:00:20;;;;;;;;;;;19.00;71.80;;;;;;491369;240;1895;-47
2021/08/13 02:02:22;;;;;;;;;;;19.00;71.90;;;;;;491343;240;1057;-47
2021/08/13 02:04:23;;;;;;;;;;;19.00;71.80;;;;;;491392;240;1231;-46
2021/08/13 02:06:24;;;;;;;;;;;18.90;71.70;;;;;;491392;240;1162;-46
2021/08/13 02:08:26;;;;;;;;;;;19.00;71.80;;;;;;491366;240;1018;-46
2021/08/13 02:10:27;;;;;;;;;;;18.90;71.80;;;;;;491455;240;1077;-47
2021/08/13 02:12:28;;;;;;;;;;;18.90;71.80;;;;;;491792;240;1239;-47
2021/08/13 02:14:30;;;;;;;;;;;18.90;71.80;;;;;;491959;240;1050;-46
2021/08/13 02:16:31;;;;;;;;;;;18.90;71.80;;;;;;491526;240;1106;-46
2021/08/13 02:18:32;;;;;;;;;;;18.90;71.80;;;;;;491562;240;1029;-47
2021/08/13 02:20:34;;;;;;;;;;;18.90;71.90;;;;;;491904;240;1070;-47
2021/08/13 02:22:35;;;;;;;;;;;18.90;71.80;;;;;;491758;240;2152;-47
2021/08/13 02:24:36;;;;;;;;;;;18.90;71.90;;;;;;491623;240;1082;-46
2021/08/13 02:26:38;;;;;;;;;;;18.90;71.90;;;;;;491546;240;1074;-47
2021/08/13 02:28:39;;;;;;;;;;;18.90;71.80;;;;;;491578;240;1189;-47
2021/08/13 02:30:40;;;;;;;;;;;18.90;71.80;;;;;;491977;240;1079;-46
2021/08/13 02:32:41;;;;;;;;;;;18.90;71.80;;;;;;492003;240;1041;-46
2021/08/13 02:34:43;;;;;;;;;;;18.90;71.80;;;;;;491581;240;1274;-46
2021/08/13 02:36:44;;;;;;;;;;;18.90;71.80;;;;;;491810;240;1032;-47
2021/08/13 02:38:45;;;;;;;;;;;18.90;71.80;;;;;;491380;240;1056;-46
2021/08/13 02:40:47;;;;;;;;;;;19.00;71.90;;;;;;491852;240;1275;-46
2021/08/13 02:42:48;;;;;;;;;;;18.90;71.80;;;;;;491336;240;2184;-47
2021/08/13 02:44:50;;;;;;;;;;;19.00;71.90;;;;;;491552;240;1088;-47
2021/08/13 02:46:51;;;;;;;;;;;18.90;72.00;;;;;;491344;240;1216;-47
2021/08/13 02:48:52;;;;;;;;;;;18.90;71.80;;;;;;491775;240;1093;-47
2021/08/13 02:50:54;;;;;;;;;;;18.90;71.90;;;;;;491353;240;1118;-47
2021/08/13 02:52:55;;;;;;;;;;;18.90;71.90;;;;;;491636;240;1228;-46
2021/08/13 02:54:56;;;;;;;;;;;18.90;71.90;;;;;;491875;240;984;-47
2021/08/13 02:56:58;;;;;;;;;;;18.90;71.90;;;;;;491455;240;1192;-46
2021/08/13 02:58:59;;;;;;;;;;;18.90;71.80;;;;;;491371;240;1119;-47
2021/08/13 03:01:00;;;;;;;;;;;18.90;71.90;;;;;;491704;240;976;-47
2021/08/13 03:03:02;;;;;;;;;;;18.90;71.80;;;;;;491395;240;2193;-47
2021/08/13 03:05:03;;;;;;;;;;;18.90;71.80;;;;;;491638;240;1061;-47
2021/08/13 03:07:04;;;;;;;;;;;18.90;71.80;;;;;;491486;240;1151;-47
2021/08/13 03:09:06;;;;;;;;;;;19.00;71.80;;;;;;491374;240;1230;-46
2021/08/13 03:11:07;;;;;;;;;;;18.90;71.80;;;;;;491362;240;1221;-47
2021/08/13 03:13:08;;;;;;;;;;;18.90;71.90;;;;;;491695;240;1381;-46
2021/08/13 03:15:10;;;;;;;;;;;18.90;71.80;;;;;;491878;240;1048;-47
2021/08/13 03:17:11;;;;;;;;;;;18.90;71.80;;;;;;491609;240;1176;-47
2021/08/13 03:19:13;;;;;;;;;;;18.90;71.80;;;;;;491362;240;1119;-46
2021/08/13 03:21:14;;;;;;;;;;;18.90;71.80;;;;;;491512;240;1426;-46
2021/08/13 03:23:15;;;;;;;;;;;18.90;71.80;;;;;;491392;240;2161;-46
2021/08/13 03:25:17;;;;;;;;;;;18.90;71.80;;;;;;491861;240;1074;-47
2021/08/13 03:27:18;;;;;;;;;;;18.90;71.80;;;;;;491348;240;1024;-46
2021/08/13 03:29:19;;;;;;;;;;;18.90;71.90;;;;;;491624;240;1230;-47
2021/08/13 03:31:21;;;;;;;;;;;18.90;71.90;;;;;;491342;240;1081;-47
2021/08/13 03:33:22;;;;;;;;;;;18.90;71.90;;;;;;491381;240;1425;-47
2021/08/13 03:35:23;;;;;;;;;;;18.90;71.90;;;;;;491455;240;1038;-46
2021/08/13 03:37:25;;;;;;;;;;;18.90;72.00;;;;;;491340;240;1149;-47
2021/08/13 03:39:26;;;;;;;;;;;18.90;71.80;;;;;;491445;240;1193;-46
2021/08/13 03:41:27;;;;;;;;;;;18.90;71.80;;;;;;491341;240;1041;-47
2021/08/13 03:43:29;;;;;;;;;;;18.90;71.90;;;;;;491627;240;2188;-47
2021/08/13 03:45:30;;;;;;;;;;;18.90;71.80;;;;;;491357;240;1065;-46
2021/08/13 03:47:31;;;;;;;;;;;18.90;71.80;;;;;;491343;240;1300;-46
2021/08/13 03:49:32;;;;;;;;;;;18.90;71.90;;;;;;491852;240;1109;-46
2021/08/13 03:51:34;;;;;;;;;;;18.90;71.90;;;;;;491368;240;1189;-46
2021/08/13 03:53:35;;;;;;;;;;;18.90;71.90;;;;;;491517;240;1205;-47
2021/08/13 03:55:36;;;;;;;;;;;18.90;71.80;;;;;;491578;240;962;-47
2021/08/13 03:57:38;;;;;;;;;;;18.90;71.80;;;;;;491555;240;1431;-46
2021/08/13 03:59:39;;;;;;;;;;;18.90;71.90;;;;;;491668;240;1060;-47
2021/08/13 04:01:40;;;;;;;;;;;18.90;72.00;;;;;;491713;240;2447;-46
2021/08/13 04:03:42;;;;;;;;;;;18.90;71.90;;;;;;491361;240;2196;-46
2021/08/13 04:05:43;;;;;;;;;;;18.90;71.80;;;;;;491337;240;1106;-46
2021/08/13 04:07:44;;;;;;;;;;;18.90;71.80;;;;;;491372;240;968;-46
2021/08/13 04:09:46;;;;;;;;;;;18.90;71.70;;;;;;491377;240;1110;-47
2021/08/13 04:11:47;;;;;;;;;;;18.90;71.80;;;;;;491360;240;1097;-47
2021/08/13 04:13:48;;;;;;;;;;;18.90;71.80;;;;;;491408;240;1089;-46
2021/08/13 04:15:50;;;;;;;;;;;18.90;71.90;;;;;;491501;240;1338;-47
2021/08/13 04:17:51;;;;;;;;;;;18.90;71.90;;;;;;491639;240;1175;-47
2021/08/13 04:19:53;;;;;;;;;;;18.90;71.80;;;;;;491528;240;1013;-47
2021/08/13 04:21:54;;;;;;;;;;;18.90;71.90;;;;;;491659;240;1110;-46
2021/08/13 04:23:56;;;;;;;;;;;18.90;72.00;;;;;;491529;240;2193;-46
2021/08/13 04:25:57;;;;;;;;;;;18.90;71.90;;;;;;491355;240;1165;-46
2021/08/13 04:27:58;;;;;;;;;;;18.90;71.90;;;;;;491383;240;1023;-47
2021/08/13 04:30:00;;;;;;;;;;;18.90;71.80;;;;;;491726;240;1121;-47
2021/08/13 04:32:01;;;;;;;;;;;18.90;71.90;;;;;;491278;240;1400;-47
2021/08/13 04:34:02;;;;;;;;;;;18.90;71.80;;;;;;491471;240;1097;-46
2021/08/13 04:36:04;;;;;;;;;;;18.90;71.90;;;;;;491658;240;1116;-47
2021/08/13 04:38:05;;;;;;;;;;;18.90;72.00;;;;;;491445;240;1143;-46
2021/08/13 04:40:06;;;;;;;;;;;18.90;71.80;;;;;;491345;240;1185;-46
2021/08/13 04:42:08;;;;;;;;;;;18.90;71.90;;;;;;491419;240;1183;-47
2021/08/13 04:44:10;;;;;;;;;;;18.90;72.00;;;;;;491536;240;2181;-47
2021/08/13 04:46:12;;;;;;;;;;;18.90;72.00;;;;;;491294;240;1343;-47
2021/08/13 04:48:13;;;;;;;;;;;18.90;72.00;;;;;;491181;240;1177;-47
2021/08/13 04:50:14;;;;;;;;;;;18.90;72.00;;;;;;491167;240;1095;-46
2021/08/13 04:52:17;;;;;;;;;;;18.90;71.90;;;;;;491210;240;1400;-47
2021/08/13 04:54:17;;;;;;;;;;;18.90;71.80;;;;;;491213;240;1562;-46
2021/08/13 04:56:18;;;;;;;;;;;18.90;71.80;;;;;;491164;240;1155;-46
2021/08/13 04:58:19;;;;;;;;;;;18.90;71.90;;;;;;491139;240;1071;-46
2021/08/13 05:00:21;;;;;;;;;;;18.90;72.00;;;;;;491278;240;1125;-47
2021/08/13 05:02:22;;;;;;;;;;;18.90;72.00;;;;;;491395;240;1069;-46
2021/08/13 05:04:24;;;;;;;;;;;18.90;72.10;;;;;;491308;240;2209;-46
2021/08/13 05:06:25;;;;;;;;;;;18.90;72.00;;;;;;491416;240;1329;-46
2021/08/13 05:08:26;;;;;;;;;;;18.90;72.00;;;;;;491261;240;1067;-46
2021/08/13 05:10:28;;;;;;;;;;;18.90;72.10;;;;;;491233;240;1137;-46
2021/08/13 05:12:29;;;;;;;;;;;18.90;72.00;;;;;;491431;240;1120;-47
2021/08/13 05:14:30;;;;;;;;;;;18.90;72.00;;;;;;491209;240;1123;-46
2021/08/13 05:16:32;;;;;;;;;;;18.90;72.00;;;;;;491158;240;1343;-46
2021/08/13 05:18:33;;;;;;;;;;;18.90;72.00;;;;;;491358;240;1135;-46
2021/08/13 05:20:34;;;;;;;;;;;18.90;72.00;;;;;;491364;240;1089;-46
2021/08/13 05:22:36;;;;;;;;;;;18.90;72.00;;;;;;491483;240;1261;-47
2021/08/13 05:24:37;;;;;;;;;;;18.90;72.10;;;;;;491324;240;2144;-46
2021/08/13 05:26:40;;;;;;;;;;;18.90;72.10;;;;;;491269;240;1331;-46
2021/08/13 05:28:40;;;;;;;;;;;18.90;72.10;;;;;;491380;240;2234;-47
2021/08/13 05:30:41;;;;;;;;;;;18.90;72.00;;;;;;491475;240;1224;-47
2021/08/13 05:32:42;;;;;;;;;;;18.90;72.00;;;;;;491273;240;1145;-46
2021/08/13 05:34:44;;;;;;;;;;;18.90;72.10;;;;;;491503;240;1065;-46
2021/08/13 05:36:45;;;;;;;;;;;18.90;72.00;;;;;;491508;240;1135;-47
2021/08/13 05:38:46;;;;;;;;;;;18.90;72.00;;;;;;491403;240;1109;-46
2021/08/13 05:40:48;;;;;;;;;;;18.90;71.90;;;;;;491166;240;1155;-46
2021/08/13 05:42:49;;;;;;;;;;;18.90;71.90;;;;;;491300;240;1366;-47
2021/08/13 05:44:50;;;;;;;;;;;18.90;72.10;;;;;;491242;240;2147;-47
2021/08/13 05:46:52;;;;;;;;;;;18.90;72.10;;;;;;491107;240;1273;-46
2021/08/13 05:48:54;;;;;;;;;;;18.90;72.00;;;;;;491582;240;1125;-47
2021/08/13 05:50:55;;;;;;;;;;;18.90;72.00;;;;;;491509;240;1291;-46
2021/08/13 05:52:56;;;;;;;;;;;18.90;72.00;;;;;;491229;240;1153;-46
2021/08/13 05:54:58;;;;;;;;;;;18.90;72.00;;;;;;491260;240;1208;-46
2021/08/13 05:56:59;;;;;;;;;;;18.90;71.90;;;;;;490750;240;1040;-46
2021/08/13 05:59:01;;;;;;;;;;;18.90;72.00;;;;;;490825;240;1292;-46
2021/08/13 06:01:02;;;;;;;;;;;18.90;71.90;;;;;;490767;240;1748;-47
2021/08/13 06:03:05;;;;;;;;;;;18.90;72.00;;;;;;490812;240;1413;-47
2021/08/13 06:05:04;;;;;;;;;;;18.90;72.00;;;;;;490786;240;2199;-46
2021/08/13 06:07:06;;;;;;;;;;;18.90;72.00;;;;;;490787;240;1117;-46
2021/08/13 06:09:07;;;;;;;;;;;18.90;72.00;;;;;;490914;240;1032;-46
2021/08/13 06:11:08;;;;;;;;;;;18.90;72.00;;;;;;490797;240;1174;-47
2021/08/13 06:13:10;;;;;;;;;;;18.90;72.00;;;;;;490720;240;1188;-46
2021/08/13 06:15:11;;;;;;;;;;;18.90;72.00;;;;;;490886;240;1047;-47
2021/08/13 06:17:12;;;;;;;;;;;18.90;71.90;;;;;;490778;240;1398;-47
2021/08/13 06:19:14;;;;;;;;;;;18.90;72.00;;;;;;490785;240;1242;-46
2021/08/13 06:21:15;;;;;;;;;;;18.90;72.00;;;;;;490859;240;1129;-46
2021/08/13 06:23:16;;;;;;;;;;;18.90;71.90;;;;;;490802;240;1052;-47
2021/08/13 06:25:18;;;;;;;;;;;18.90;72.10;;;;;;490746;240;2149;-46
2021/08/13 06:27:19;;;;;;;;;;;18.90;72.10;;;;;;490801;240;1146;-47
2021/08/13 06:29:21;;;;;;;;;;;18.90;72.10;;;;;;490903;240;1042;-46
2021/08/13 06:31:22;;;;;;;;;;;18.90;72.10;;;;;;490732;240;1069;-47
2021/08/13 06:33:23;;;;;;;;;;;18.90;72.10;;;;;;490818;240;1052;-47
2021/08/13 06:35:25;;;;;;;;;;;18.90;72.10;;;;;;490923;240;1303;-47
2021/08/13 06:37:26;;;;;;;;;;;18.90;72.20;;;;;;490962;240;1097;-46
2021/08/13 06:39:27;;;;;;;;;;;18.90;72.20;;;;;;490745;240;1038;-46
2021/08/13 06:41:29;;;;;;;;;;;18.90;72.20;;;;;;490805;240;1197;-46
2021/08/13 06:43:30;;;;;;;;;;;18.90;72.30;;;;;;490832;240;1061;-46
2021/08/13 06:45:32;;;;;;;;;;;18.80;72.20;;;;;;490663;240;2206;-46
2021/08/13 06:47:33;;;;;;;;;;;18.90;72.20;;;;;;490768;240;1193;-47
2021/08/13 06:49:34;;;;;;;;;;;18.90;72.10;;;;;;490811;240;1135;-47
2021/08/13 06:51:35;;;;;;;;;;;18.90;72.10;;;;;;491022;240;1248;-47
2021/08/13 06:53:37;;;;;;;;;;;18.90;72.20;;;;;;491652;240;864;-46
2021/08/13 06:55:38;;;;;;;;;;;18.90;72.10;;;;;;491455;240;1104;-46
2021/08/13 06:57:39;;;;;;;;;;;18.90;72.10;;;;;;491105;240;1090;-47
2021/08/13 06:59:41;;;;;;;;;;;18.90;72.10;;;;;;491258;240;1139;-46
2021/08/13 07:01:42;;;;;;;;;;;18.90;72.10;;;;;;491191;240;1161;-47
2021/08/13 07:03:43;;;;;;;;;;;18.90;72.10;;;;;;491207;240;1304;-47
2021/08/13 07:05:45;;;;;;;;;;;18.90;72.00;;;;;;491082;240;2141;-46
2021/08/13 07:07:46;;;;;;;;;;;18.90;72.00;;;;;;491107;240;1308;-46
2021/08/13 07:09:48;;;;;;;;;;;18.90;72.10;;;;;;491000;240;1111;-46
2021/08/13 07:11:49;;;;;;;;;;;18.90;72.10;;;;;;490714;240;1075;-46
2021/08/13 07:13:50;;;;;;;;;;;18.90;72.10;;;;;;490901;240;1069;-46
2021/08/13 07:15:51;;;;;;;;;;;18.90;72.10;;;;;;490802;240;1294;-47
2021/08/13 07:17:53;;;;;;;;;;;18.90;72.20;;;;;;490799;240;1215;-46
2021/08/13 07:19:54;;;;;;;;;;;18.90;72.10;;;;;;490870;240;1116;-46
2021/08/13 07:21:55;;;;;;;;;;;18.90;72.10;;;;;;490720;240;1055;-46
2021/08/13 07:23:57;;;;;;;;;;;18.90;72.20;;;;;;490785;240;1345;-47
2021/08/13 07:25:58;;;;;;;;;;;18.90;72.20;;;;;;490997;240;2136;-47
2021/08/13 07:27:59;;;;;;;;;;;18.90;72.30;;;;;;490889;240;1179;-47
2021/08/13 07:30:01;;;;;;;;;;;18.90;72.20;;;;;;490954;240;1097;-46
2021/08/13 07:32:02;;;;;;;;;;;18.90;72.10;;;;;;490865;240;1241;-46
2021/08/13 07:34:03;;;;;;;;;;;18.90;72.10;;;;;;490945;240;1084;-47
2021/08/13 07:36:04;;;;;;;;;;;18.90;72.20;;;;;;490800;240;1049;-46
2021/08/13 07:38:06;;;;;;;;;;;18.90;72.10;;;;;;490797;240;1081;-46
2021/08/13 07:40:07;;;;;;;;;;;18.90;72.10;;;;;;490717;240;1141;-46
2021/08/13 07:42:08;;;;;;;;;;;18.90;72.10;;;;;;490656;240;1218;-47
2021/08/13 07:44:10;;;;;;;;;;;18.90;72.20;;;;;;490881;240;1087;-47
2021/08/13 07:46:11;;;;;;;;;;;18.90;72.20;;;;;;490680;240;2183;-46
2021/08/13 07:48:12;;;;;;;;;;;18.90;72.10;;;;;;490676;240;1202;-47
2021/08/13 07:50:14;;;;;;;;;;;18.90;72.10;;;;;;490666;240;1080;-47
2021/08/13 07:52:15;;;;;;;;;;;18.90;72.10;;;;;;490663;240;1356;-46
2021/08/13 07:54:16;;;;;;;;;;;18.90;72.20;;;;;;490903;240;1190;-46
2021/08/13 07:56:18;;;;;;;;;;;18.90;72.20;;;;;;490796;240;1192;-47
2021/08/13 07:58:19;;;;;;;;;;;18.90;72.30;;;;;;490822;240;1332;-46
2021/08/13 08:00:20;;;;;;;;;;;18.90;72.30;;;;;;490804;240;1237;-46
2021/08/13 08:02:22;;;;;;;;;;;18.90;72.30;;;;;;490740;240;1306;-47
2021/08/13 08:04:23;;;;;;;;;;;18.90;72.30;;;;;;490846;240;1125;-46
2021/08/13 08:06:24;;;;;;;;;;;19.10;71.60;;;;;;490696;240;2128;-46
2021/08/13 08:08:26;;;;;;;;;;;19.40;70.50;;;;;;491599;240;1220;-46
2021/08/13 08:10:27;;;;;;;;;;;19.60;69.50;;;;;;491583;240;893;-46
2021/08/13 08:12:28;;;;;;;;;;;19.80;68.80;;;;;;491049;240;1132;-47
2021/08/13 08:14:30;;;;;;;;;;;20.00;68.10;;;;;;491658;240;1067;-47
2021/08/13 08:16:31;;;;;;;;;;;20.10;67.50;;;;;;490773;240;1285;-47
2021/08/13 08:18:32;;;;;;;;;;;20.20;67.30;;;;;;491164;240;1163;-47
2021/08/13 08:20:34;;;;;;;;;;;20.30;67.00;;;;;;491117;240;863;-47
2021/08/13 08:22:35;;;;;;;;;;;20.30;66.70;;;;;;491047;240;1126;-47
2021/08/13 08:24:36;;;;;;;;;;;20.40;66.40;;;;;;491171;240;872;-47
2021/08/13 08:26:38;;;;;;;;;;;20.50;66.30;;;;;;491094;240;2187;-47
2021/08/13 08:28:41;;;;;;;;;;;20.50;66.20;;;;;;491170;240;978;-47
2021/08/13 08:30:40;;;;;;;;;;;20.60;66.10;;;;;;491682;240;2280;-47
2021/08/13 08:32:42;;;;;;;;;;;20.60;65.90;;;;;;491605;240;840;-47
2021/08/13 08:34:43;;;;;;;;;;;20.60;65.90;;;;;;491653;240;826;-47
2021/08/13 08:36:44;;;;;;;;;;;20.70;65.70;;;;;;491603;240;1010;-47
2021/08/13 08:38:46;;;;;;;;;;;20.70;65.70;;;;;;491188;240;1335;-47
2021/08/13 08:40:48;;;;;;;;;;;20.70;65.60;;;;;;491616;240;860;-47
2021/08/13 08:42:48;;;;;;;;;;;20.70;65.50;;;;;;490737;240;2029;-47
2021/08/13 08:44:50;;;;;;;;;;;20.80;65.50;;;;;;490616;240;2141;-47
2021/08/13 08:46:51;;;;;;;;;;;20.80;65.40;;;;;;490520;240;1091;-47
2021/08/13 08:48:52;;;;;;;;;;;20.80;65.40;;;;;;490718;240;1077;-47
2021/08/13 08:50:54;;;;;;;;;;;20.80;65.30;;;;;;490667;240;1066;-47
2021/08/13 08:52:55;;;;;;;;;;;20.80;65.20;;;;;;490577;240;1318;-47
2021/08/13 08:54:56;;;;;;;;;;;20.80;65.00;;;;;;490592;240;1126;-47
2021/08/13 08:56:57;;;;;;;;;;;20.90;64.80;;;;;;490545;240;1245;-47
2021/08/13 08:58:59;;;;;;;;;;;21.00;64.90;;;;;;490690;240;1075;-46
2021/08/13 09:01:00;;;;;;;;;;;20.90;64.90;;;;;;490732;240;1062;-47
2021/08/13 09:03:02;;;;;;;;;;;21.00;64.90;;;;;;490766;240;1137;-47
2021/08/13 09:05:03;;;;;;;;;;;21.00;64.70;;;;;;490846;240;2193;-47
2021/08/13 09:07:04;;;;;;;;;;;21.00;64.60;;;;;;490970;240;1146;-47
2021/08/13 09:09:06;;;;;;;;;;;21.10;64.60;;;;;;491599;240;1071;-47
2021/08/13 09:11:07;;;;;;;;;;;21.10;64.50;;;;;;491554;240;1175;-46
2021/08/13 09:13:09;;;;;;;;;;;21.10;64.50;;;;;;491164;240;1167;-47
2021/08/13 09:15:10;;;;;;;;;;;21.10;64.40;;;;;;491620;240;833;-47
2021/08/13 09:17:11;;;;;;;;;;;21.20;64.30;;;;;;491117;240;1105;-47
2021/08/13 09:19:12;;;;;;;;;;;21.20;64.00;;;;;;491570;240;1170;-47
2021/08/13 09:21:14;;;;;;;;;;;21.20;64.00;;;;;;491494;240;1174;-47
2021/08/13 09:23:15;;;;;;;;;;;21.30;64.10;;;;;;491054;240;1184;-47
2021/08/13 09:25:16;;;;;;;;;;;21.20;64.10;;;;;;490846;240;2208;-47
2021/08/13 09:27:18;;;;;;;;;;;21.30;64.10;;;;;;490833;240;1169;-47
2021/08/13 09:29:19;;;;;;;;;;;21.30;64.00;;;;;;490699;240;1074;-47
2021/08/13 09:31:21;;;;;;;;;;;21.40;63.90;;;;;;490627;240;1126;-47
2021/08/13 09:33:22;;;;;;;;;;;21.30;63.90;;;;;;490593;240;1085;-47
2021/08/13 09:35:23;;;;;;;;;;;21.30;63.90;;;;;;490767;240;1133;-47
2021/08/13 09:37:25;;;;;;;;;;;21.30;63.90;;;;;;490801;240;1079;-47
2021/08/13 09:39:26;;;;;;;;;;;21.40;63.80;;;;;;490690;240;1092;-47
2021/08/13 09:41:27;;;;;;;;;;;21.40;63.70;;;;;;490594;240;1202;-47
2021/08/13 09:43:29;;;;;;;;;;;21.40;63.60;;;;;;491011;240;1053;-47
2021/08/13 09:45:30;;;;;;;;;;;21.40;63.80;;;;;;491522;240;2183;-47
2021/08/13 09:47:31;;;;;;;;;;;21.40;63.60;;;;;;490903;240;1143;-46
2021/08/13 09:49:33;;;;;;;;;;;21.50;63.50;;;;;;491049;240;831;-47
2021/08/13 09:51:34;;;;;;;;;;;21.50;63.50;;;;;;491377;240;1347;-47
2021/08/13 09:53:35;;;;;;;;;;;21.60;63.30;;;;;;491332;240;1058;-47
2021/08/13 09:55:37;;;;;;;;;;;21.60;63.40;;;;;;490934;240;1292;-47
2021/08/13 09:57:38;;;;;;;;;;;21.50;63.30;;;;;;491089;240;1098;-47
2021/08/13 09:59:39;;;;;;;;;;;21.50;63.30;;;;;;491039;240;1155;-46
2021/08/13 10:01:40;;;;;;;;;;;21.60;63.30;;;;;;491476;240;1166;-47
2021/08/13 10:03:42;;;;;;;;;;;21.60;63.10;;;;;;491554;240;909;-47
2021/08/13 10:05:43;;;;;;;;;;;21.60;63.20;;;;;;491573;240;2183;-47
2021/08/13 10:07:44;;;;;;;;;;;21.60;63.30;;;;;;491519;240;1033;-47
2021/08/13 10:09:47;;;;;;;;;;;21.60;63.30;;;;;;491141;240;902;-47
2021/08/13 10:11:47;;;;;;;;;;;21.60;63.30;;;;;;491101;240;2165;-47
2021/08/13 10:13:48;;;;;;;;;;;21.60;63.30;;;;;;491149;240;1120;-47
2021/08/13 10:15:50;;;;;;;;;;;21.70;63.20;;;;;;491109;240;820;-47
2021/08/13 10:17:51;;;;;;;;;;;21.70;63.20;;;;;;491534;240;1030;-46
2021/08/13 10:19:52;;;;;;;;;;;21.70;63.10;;;;;;491592;240;906;-47
2021/08/13 10:21:54;;;;;;;;;;;21.70;63.00;;;;;;490995;240;1138;-47
2021/08/13 10:23:55;;;;;;;;;;;21.70;63.20;;;;;;490637;240;1131;-47
2021/08/13 10:25:56;;;;;;;;;;;21.70;63.20;;;;;;490668;240;2192;-47
2021/08/13 10:27:58;;;;;;;;;;;21.70;63.20;;;;;;490561;240;1202;-47
2021/08/13 10:29:59;;;;;;;;;;;21.70;63.20;;;;;;490682;240;1059;-47
2021/08/13 10:32:00;;;;;;;;;;;21.70;63.10;;;;;;490737;240;1377;-47
2021/08/13 10:34:02;;;;;;;;;;;21.70;63.10;;;;;;490664;240;1107;-46
2021/08/13 10:36:03;;;;;;;;;;;21.70;63.20;;;;;;490624;240;1353;-47
2021/08/13 10:38:04;;;;;;;;;;;21.70;63.90;;;;;;490727;240;1241;-47
2021/08/13 10:40:06;;;;;;;;;;;21.60;64.10;;;;;;490567;240;1113;-46
2021/08/13 10:42:07;;;;;;;;;;;21.40;64.90;;;;;;490516;240;1138;-47
2021/08/13 10:44:08;;;;;;;;;;;21.00;66.10;;;;;;490670;240;1089;-46
2021/08/13 10:46:10;;;;;;;;;;;20.70;67.30;;;;;;490656;240;2141;-46
2021/08/13 10:48:11;;;;;;;;;;;20.50;68.00;;;;;;490629;240;1219;-47
2021/08/13 10:50:13;;;;;;;;;;;20.40;68.60;;;;;;490564;240;1147;-47
2021/08/13 10:52:15;;;;;;;;;;;20.30;69.00;;;;;;490480;240;1196;-47
2021/08/13 10:54:19;;;;;;;;;;;20.20;69.40;;;;;;490605;240;1909;-47
2021/08/13 10:56:17;;;;;;;;;;;20.20;69.60;;;;;;490623;240;1408;-46
2021/08/13 10:58:18;;;;;;;;;;;20.10;69.80;;;;;;490686;240;1170;-47
2021/08/13 11:00:20;;;;;;;;;;;20.00;69.90;;;;;;490820;240;1136;-47
2021/08/13 11:02:21;;;;;;;;;;;20.00;70.00;;;;;;490713;240;1165;-47
2021/08/13 11:04:22;;;;;;;;;;;20.00;70.20;;;;;;490612;240;1055;-47
2021/08/13 11:06:23;;;;;;;;;;;19.90;70.20;;;;;;490630;240;2191;-47
2021/08/13 11:08:25;;;;;;;;;;;19.90;70.30;;;;;;491071;241;945;-47
2021/08/13 11:10:26;;;;;;;;;;;19.90;70.50;;;;;;491171;240;865;-46
2021/08/13 11:12:27;;;;;;;;;;;19.80;70.60;;;;;;491501;240;1168;-47
2021/08/13 11:14:29;;;;;;;;;;;19.80;70.60;;;;;;491237;240;1118;-46
2021/08/13 11:16:31;;;;;;;;;;;19.80;70.70;;;;;;491031;240;1190;-47
2021/08/13 11:18:32;;;;;;;;;;;19.80;70.70;;;;;;491600;240;2066;-47
2021/08/13 11:20:33;;;;;;;;;;;19.80;70.70;;;;;;491656;240;975;-47
2021/08/13 11:22:35;;;;;;;;;;;19.80;70.80;;;;;;491017;240;1111;-46
2021/08/13 11:24:36;;;;;;;;;;;19.80;70.80;;;;;;491042;240;1203;-46
2021/08/13 11:26:37;;;;;;;;;;;19.70;70.90;;;;;;490993;240;2213;-47
2021/08/13 11:28:38;;;;;;;;;;;19.70;71.00;;;;;;491119;240;1177;-47
2021/08/13 11:30:40;;;;;;;;;;;19.70;71.10;;;;;;490961;240;1159;-47
2021/08/13 11:32:44;;;;;;;;;;;19.70;71.00;;;;;;490852;240;1309;-47
2021/08/13 11:34:43;;;;;;;;;;;19.70;71.10;;;;;;491364;240;1928;-47
2021/08/13 11:36:44;;;;;;;;;;;19.60;71.00;;;;;;491056;240;1110;-47
2021/08/13 11:38:45;;;;;;;;;;;19.60;71.10;;;;;;491110;240;1119;-46
2021/08/13 11:40:50;;;;;;;;;;;19.70;71.10;;;;;;490993;240;1169;-47
2021/08/13 11:42:51;;;;;;;;;;;19.70;71.20;;;;;;490968;240;1560;-46
2021/08/13 11:44:52;;;;;;;;;;;19.60;71.20;;;;;;491179;240;1178;-46
2021/08/13 11:46:54;;;;;;;;;;;19.60;71.20;;;;;;491144;240;2176;-47
2021/08/13 11:48:55;;;;;;;;;;;19.60;71.20;;;;;;491175;240;1099;-47
2021/08/13 11:50:56;;;;;;;;;;;19.60;71.20;;;;;;491099;240;1111;-47
2021/08/13 11:52:58;;;;;;;;;;;19.60;71.30;;;;;;491102;240;1091;-46
2021/08/13 11:54:59;;;;;;;;;;;19.60;71.20;;;;;;491076;240;1079;-47
2021/08/13 11:57:00;;;;;;;;;;;19.60;71.30;;;;;;491115;240;1114;-47